Meteo Giornale » Osservazioni meteo Italia » Cuneo-Levaldigi

ore: 04:50 - Osservazioni Meteo Cuneo-Levaldigi
Lat. 44° 32' N Lon. 7° 37' E Alt. 396 metri s.l.m.

molto_nuvoloso Europe/Rome

4 °C

Molto Nuvoloso

Temp. 24 Ore

0 °C

14 °C

Nord

3.7 Km/h

Dew point 2 °C

Umidità 86 %

Visibilità  9 Km

Il sole sorge alle ore 06:56

Il sole tramonta alle ore 18:25

Data e Ora Cielo e Fenomeni T °C DP °C Um. % Pres. hPa Vis. km Vento km/h
Oggi h: 04:50 molto_nuvoloso Molto Nuvoloso 4 2 86 1021 9 N 3.7
Oggi h: 04:20 molto_nuvoloso Molto Nuvoloso 4 2 86 1020 10 N 5.5
Oggi h: 03:50 molto_nuvoloso Molto Nuvoloso 4 2 86 1020 10 N 3.7
Oggi h: 03:20 molto_nuvoloso Molto Nuvoloso 4 2 86 1020 10 N 3.7
Oggi h: 02:50 coperto Coperto 4 2 86 1020 10 N 3.7
Oggi h: 02:20 molto_nuvoloso Molto Nuvoloso 3 2 93 1020 10 N 5.5
Oggi h: 01:50 molto_nuvoloso Molto Nuvoloso 4 2 86 1020 9 S/SO 9.3
Oggi h: 01:20 molto_nuvoloso Molto Nuvoloso 4 2 86 1019 9 S/SO 7.4
Oggi h: 00:50 molto_nuvoloso Molto Nuvoloso 3 2 93 1019 10 S/SO 9.3
Oggi h: 00:20 molto_nuvoloso Molto Nuvoloso 2 1 93 1019 9 S 9.3
Ieri h: 23:50 poco_nuvoloso Poco Nuvoloso 2 0 86 1019 9 S 7.4
Ieri h: 23:20 sereno Sereno 2 1 93 1018 8 S 9.3
Ieri h: 22:50 sereno Sereno 3 2 93 1018 8 N 3.7
Ieri h: 22:20 poco_nuvoloso Poco Nuvoloso 4 3 93 1018 9 N 3.7
Ieri h: 21:50 nuvoloso Nuvoloso 5 4 93 1018 9 O/SO 7.4
Ieri h: 21:20 molto_nuvoloso Molto Nuvoloso 8 5 81 1017 10 S/SO 9.3
Ieri h: 20:50 molto_nuvoloso Molto Nuvoloso 8 5 81 1017 10 N 5.5
Ieri h: 19:50 molto_nuvoloso Molto Nuvoloso 9 5 75 1017 10 N 3.7
Ieri h: 19:20 molto_nuvoloso Molto Nuvoloso 10 5 71 1016 10 N 3.7
Ieri h: 18:20 sereno Sereno 12 4 57 1015 10 N 5.5
Ieri h: 17:50 sereno Sereno 13 4 54 1015 10 N/NO 7.4
Ieri h: 17:20 sereno Sereno 13 4 54 1015 10 N 9.3
Ieri h: 16:50 sereno Sereno 14 3 47 1015 10 N 9.3
Ieri h: 16:20 sereno Sereno 14 4 50 1014 10 N 7.4
Ieri h: 15:50 sereno Sereno 14 4 50 1014 10 N/NE 9.3
Ieri h: 15:20 sereno Sereno 14 3 47 1014 10 N/NE 7.4
Ieri h: 14:50 sereno Sereno 14 3 47 1014 10 NE 7.4
Ieri h: 14:20 sereno Sereno 14 4 50 1015 10 NE 7.4
Ieri h: 13:50 sereno Sereno 14 4 50 1015 10 N 5.5
Ieri h: 12:50 sereno Sereno 12 5 62 1015 10 E/NE 7.4
Ieri h: 12:20 sereno Sereno 12 4 57 1016 10 N 3.7
Ieri h: 11:20 poco_nuvoloso Poco Nuvoloso 10 4 66 1016 10 N 3.7
Ieri h: 10:50 sereno Sereno 10 3 61 1016 10 N 1.8
Ieri h: 10:20 sereno Sereno 9 4 70 1016 9 N 3.7
Ieri h: 09:50 sereno Sereno 8 4 75 1016 9 N 3.7
Ieri h: 09:20 sereno Sereno 8 3 70 1017 8 N 1.8
Ieri h: 08:50 sereno Sereno 5 3 86 1016 7 N 3.7
Ieri h: 08:20 sereno Sereno 2 1 93 1016 7 N 3.7
Ieri h: 07:50 sereno Sereno 0 -0 100 1016 6 S/SO 7.4
Ieri h: 07:20 sereno Sereno 0 -1 92 1016 7 N 5.5
Ieri h: 05:50 poco_nuvoloso Poco Nuvoloso 2 0 86 1016 7 O/SO 7.4